• Join FlightAware (Why Join?)
  • Login
  • US Flag 
01:40AM EDT


 

Airport Tracker/Info


-or-


 

Live Flight TrackerFlight Track Log ✈ N101MA ✈ 04-Jul-2013 ✈ KFOK - KMPO

Flight Track Log - Related Links

Times and Time Zones

All times are in EDT time to prevent confusion due to time zone crossing. See the N101MA flight status page for this flight to view local times or setup timezone preferences in your user account.

Time Position Orientation Groundspeed Altitude Reporting Facility
EDT Latitude Longitude Course Direction KTS MPH feet Rate Location/Type
01:49PM 40.8333 -72.6000 66° East 149 171 2,200  Level New York TRACON
01:50PM 40.8667 -72.6167 339° North 122 140 3,200 900 Climbing New York TRACON
01:51PM 40.9000 -72.6167 360° North 137 158 4,000 360 Climbing New York TRACON
01:52PM 40.9500 -72.6167 360° North 174 200 4,000  Level New York TRACON
01:53PM 40.9983 -72.8750 309° West  Level FlightAware Approximate
01:53PM 41.0000 -72.6500 333° Northwest 170 196 4,000  Level New York TRACON
01:54PM 41.0333 -72.6833 323° Northwest 164 189 4,000  Level New York TRACON
01:55PM 41.0833 -72.7000 346° North 170 196 4,000  Level New York TRACON
01:56PM 41.1167 -72.7333 323° Northwest 169 194 4,000  Level New York TRACON
01:57PM 41.1667 -72.7667 333° Northwest 172 198 4,000 60 Level New York TRACON
01:58PM 41.1833 -72.8167 294° West 158 182 4,200 480 Climbing New York TRACON
01:59PM 41.1833 -72.8667 270° West 134 154 5,000 720 Climbing New York TRACON
02:00PM 41.2000 -72.9167 294° West 134 154 5,700 480 Climbing New York TRACON
02:01PM 41.2000 -72.9667 270° West 145 167 6,100 180 Climbing New York TRACON
02:02PM 41.2167 -73.0167 294° West 155 178 6,100  Level New York TRACON
02:03PM 41.2167 -73.0833 270° West 156 180 6,100 -60 Level New York TRACON
02:04PM 41.2333 -73.1333 294° West 156 180 6,000 -60 Descending New York TRACON
02:05PM 41.2333 -73.1833 270° West 160 184 6,000  Level New York TRACON
02:06PM 41.2333 -73.2500 270° West 161 185 6,100  Climbing New York TRACON
02:07PM 41.2500 -73.3000 294° West 156 180 6,100  Level New York TRACON
02:08PM 41.2500 -73.3667 270° West 156 180 6,100  Level New York TRACON
02:09PM 41.2333 -73.4167 246° West 156 180 6,100 240 Level New York TRACON
02:10PM 41.2333 -73.4833 270° West 143 165 6,700 600 Climbing New York TRACON
02:11PM 41.2167 -73.5333 246° West 141 162 7,300 540 Climbing New York TRACON
02:12PM 41.2167 -73.5833 270° West 146 168 7,800 360 Climbing New York TRACON
02:13PM 41.2000 -73.6333 246° West 156 180 8,100 120 Climbing New York TRACON
02:14PM 41.2000 -73.7000 270° West 162 186 8,100  Level New York TRACON
02:15PM 41.1833 -73.7667 252° West 165 190 8,100  Level New York TRACON
02:16PM 41.1833 -73.8167 270° West 160 184 8,100  Level New York TRACON
02:17PM 41.1667 -73.8667 246° West 158 182 8,100  Level New York TRACON
02:18PM 41.1667 -73.9333 270° West 159 183 8,100  Level New York TRACON
02:19PM 41.1500 -73.9833 246° West 158 182 8,100  Level New York TRACON
02:20PM 41.1500 -74.0500 270° West 158 182 8,100  Level New York TRACON
02:21PM 41.1333 -74.1000 246° West 160 184 8,100  Level New York TRACON
02:22PM 41.1333 -74.1667 270° West 161 185 8,100 -60 Level New York TRACON
02:23PM 41.1167 -74.2167 246° West 160 184 8,000 -60 Descending New York TRACON
02:24PM 41.1167 -74.2667 270° West 159 183 8,000  Level New York TRACON
02:25PM 41.1000 -74.3333 252° West 161 185 8,000  Level New York TRACON
02:26PM 41.1000 -74.3833 270° West 162 186 8,100  Climbing New York TRACON
02:27PM 41.0833 -74.4500 252° West 158 182 8,000  Descending New York TRACON
02:28PM 41.0833 -74.5000 270° West 159 183 8,100  Climbing New York TRACON
02:29PM 41.0667 -74.5667 252° West 163 188 8,100  Level New York TRACON
02:31PM 41.0970 -74.6196 307° West  Level FlightAware Approximate
02:38PM 41.1170 -74.9815 270° West  Level Estimated
02:39PM 41.1206 -75.0332 275° West  Level FlightAware Approximate
02:40PM 41.1242 -75.0848 275° West  Level FlightAware Approximate
02:41PM 41.1278 -75.1364 275° West  Level FlightAware Approximate
02:42PM 41.1314 -75.1881 275° West  Level FlightAware Approximate
02:43PM 41.1331 -75.2399 270° West  Level Estimated
02:44PM 41.1332 -75.2917 270° West  Level FlightAware Approximate
02:45PM 41.1359 -75.3435 270° West  Level Estimated
02:46PM 41.1333 -75.3667 270° West  Level FlightAware Approximate
02:47PM 41.1377 -75.3801 270° West  Level Estimated
02:48PM 41.1377 -75.3801 270° West  Level Estimated